sensor_id;sensor_type;location;lat;lon;timestamp;P1;durP1;ratioP1;P2;durP2;ratioP2
13331;SDS011;6735;51.456;12.626;2024-03-29T00:02:00;2.40;;;2.20;;
13331;SDS011;6735;51.456;12.626;2024-03-29T00:04:26;2.83;;;2.50;;
13331;SDS011;6735;51.456;12.626;2024-03-29T00:06:51;2.70;;;2.50;;
13331;SDS011;6735;51.456;12.626;2024-03-29T00:09:17;3.63;;;2.60;;
13331;SDS011;6735;51.456;12.626;2024-03-29T00:11:42;2.50;;;2.30;;
13331;SDS011;6735;51.456;12.626;2024-03-29T00:14:08;3.57;;;2.30;;
13331;SDS011;6735;51.456;12.626;2024-03-29T00:16:33;2.50;;;2.30;;
13331;SDS011;6735;51.456;12.626;2024-03-29T00:18:59;3.87;;;2.60;;
13331;SDS011;6735;51.456;12.626;2024-03-29T00:21:24;1.90;;;1.70;;
13331;SDS011;6735;51.456;12.626;2024-03-29T00:23:50;3.00;;;2.23;;
13331;SDS011;6735;51.456;12.626;2024-03-29T00:26:16;1.97;;;1.80;;
13331;SDS011;6735;51.456;12.626;2024-03-29T00:28:41;1.83;;;1.73;;
13331;SDS011;6735;51.456;12.626;2024-03-29T00:31:07;2.37;;;2.00;;
13331;SDS011;6735;51.456;12.626;2024-03-29T00:33:33;1.80;;;1.70;;
13331;SDS011;6735;51.456;12.626;2024-03-29T00:35:58;2.13;;;1.83;;
13331;SDS011;6735;51.456;12.626;2024-03-29T00:38:24;2.40;;;1.83;;
13331;SDS011;6735;51.456;12.626;2024-03-29T00:40:50;2.23;;;2.03;;
13331;SDS011;6735;51.456;12.626;2024-03-29T00:43:15;1.90;;;1.80;;
13331;SDS011;6735;51.456;12.626;2024-03-29T00:45:41;5.23;;;2.20;;
13331;SDS011;6735;51.456;12.626;2024-03-29T00:48:07;2.03;;;1.93;;
13331;SDS011;6735;51.456;12.626;2024-03-29T00:50:32;2.10;;;1.90;;
13331;SDS011;6735;51.456;12.626;2024-03-29T00:52:59;1.63;;;1.53;;
13331;SDS011;6735;51.456;12.626;2024-03-29T00:55:24;2.40;;;1.80;;
13331;SDS011;6735;51.456;12.626;2024-03-29T00:57:50;1.90;;;1.77;;
13331;SDS011;6735;51.456;12.626;2024-03-29T01:00:15;2.80;;;1.77;;
13331;SDS011;6735;51.456;12.626;2024-03-29T01:02:41;1.70;;;1.60;;
13331;SDS011;6735;51.456;12.626;2024-03-29T01:05:06;2.63;;;1.77;;
13331;SDS011;6735;51.456;12.626;2024-03-29T01:07:32;1.97;;;1.50;;
13331;SDS011;6735;51.456;12.626;2024-03-29T01:09:58;1.40;;;1.30;;
13331;SDS011;6735;51.456;12.626;2024-03-29T01:12:24;1.60;;;1.50;;
13331;SDS011;6735;51.456;12.626;2024-03-29T01:14:49;1.73;;;1.47;;
13331;SDS011;6735;51.456;12.626;2024-03-29T01:17:15;1.33;;;1.30;;
13331;SDS011;6735;51.456;12.626;2024-03-29T01:19:40;1.17;;;1.10;;
13331;SDS011;6735;51.456;12.626;2024-03-29T01:22:06;1.37;;;1.20;;
13331;SDS011;6735;51.456;12.626;2024-03-29T01:24:33;1.33;;;1.13;;
13331;SDS011;6735;51.456;12.626;2024-03-29T01:26:59;1.80;;;1.53;;
13331;SDS011;6735;51.456;12.626;2024-03-29T01:29:24;1.63;;;1.40;;
13331;SDS011;6735;51.456;12.626;2024-03-29T01:31:50;2.37;;;1.30;;
13331;SDS011;6735;51.456;12.626;2024-03-29T01:34:15;1.50;;;1.40;;
13331;SDS011;6735;51.456;12.626;2024-03-29T01:36:41;1.43;;;1.33;;
13331;SDS011;6735;51.456;12.626;2024-03-29T01:39:07;1.30;;;1.20;;
13331;SDS011;6735;51.456;12.626;2024-03-29T01:41:33;1.27;;;1.17;;
13331;SDS011;6735;51.456;12.626;2024-03-29T01:43:59;3.77;;;1.57;;
13331;SDS011;6735;51.456;12.626;2024-03-29T01:46:24;1.33;;;1.20;;
13331;SDS011;6735;51.456;12.626;2024-03-29T01:48:51;1.57;;;1.40;;
13331;SDS011;6735;51.456;12.626;2024-03-29T01:51:18;2.23;;;1.20;;
13331;SDS011;6735;51.456;12.626;2024-03-29T01:53:46;2.27;;;1.40;;
13331;SDS011;6735;51.456;12.626;2024-03-29T01:56:14;1.30;;;1.20;;
13331;SDS011;6735;51.456;12.626;2024-03-29T01:58:40;2.07;;;1.30;;
13331;SDS011;6735;51.456;12.626;2024-03-29T02:01:06;1.80;;;1.43;;
13331;SDS011;6735;51.456;12.626;2024-03-29T02:03:33;1.30;;;1.23;;
13331;SDS011;6735;51.456;12.626;2024-03-29T02:05:58;1.40;;;1.30;;
13331;SDS011;6735;51.456;12.626;2024-03-29T02:08:26;1.87;;;1.20;;
13331;SDS011;6735;51.456;12.626;2024-03-29T02:10:53;1.00;;;1.00;;
13331;SDS011;6735;51.456;12.626;2024-03-29T02:13:19;1.30;;;1.20;;
13331;SDS011;6735;51.456;12.626;2024-03-29T02:15:45;2.60;;;1.40;;
13331;SDS011;6735;51.456;12.626;2024-03-29T02:18:10;1.20;;;1.03;;
13331;SDS011;6735;51.456;12.626;2024-03-29T02:20:36;2.40;;;1.33;;
13331;SDS011;6735;51.456;12.626;2024-03-29T02:23:06;1.10;;;1.00;;
13331;SDS011;6735;51.456;12.626;2024-03-29T02:25:33;1.97;;;1.47;;
13331;SDS011;6735;51.456;12.626;2024-03-29T02:27:59;1.77;;;1.50;;
13331;SDS011;6735;51.456;12.626;2024-03-29T02:30:27;5.10;;;1.27;;
13331;SDS011;6735;51.456;12.626;2024-03-29T02:32:55;2.33;;;1.30;;
13331;SDS011;6735;51.456;12.626;2024-03-29T02:35:21;1.13;;;1.13;;
13331;SDS011;6735;51.456;12.626;2024-03-29T02:37:46;1.20;;;1.10;;
13331;SDS011;6735;51.456;12.626;2024-03-29T02:40:11;1.30;;;1.30;;
13331;SDS011;6735;51.456;12.626;2024-03-29T02:42:37;1.60;;;1.50;;
13331;SDS011;6735;51.456;12.626;2024-03-29T02:45:03;1.20;;;1.20;;
13331;SDS011;6735;51.456;12.626;2024-03-29T02:47:29;1.20;;;1.10;;
13331;SDS011;6735;51.456;12.626;2024-03-29T02:49:54;4.60;;;1.47;;
13331;SDS011;6735;51.456;12.626;2024-03-29T02:52:19;1.43;;;1.33;;
13331;SDS011;6735;51.456;12.626;2024-03-29T02:54:45;1.23;;;1.10;;
13331;SDS011;6735;51.456;12.626;2024-03-29T02:57:10;1.50;;;1.40;;
13331;SDS011;6735;51.456;12.626;2024-03-29T02:59:36;1.30;;;1.20;;
13331;SDS011;6735;51.456;12.626;2024-03-29T03:02:01;1.20;;;1.10;;
13331;SDS011;6735;51.456;12.626;2024-03-29T03:04:27;1.57;;;1.47;;
13331;SDS011;6735;51.456;12.626;2024-03-29T03:06:53;1.80;;;1.30;;
13331;SDS011;6735;51.456;12.626;2024-03-29T03:09:20;1.27;;;1.00;;
13331;SDS011;6735;51.456;12.626;2024-03-29T03:12:05;1.30;;;1.20;;
13331;SDS011;6735;51.456;12.626;2024-03-29T03:14:30;1.30;;;1.20;;
13331;SDS011;6735;51.456;12.626;2024-03-29T03:16:56;2.07;;;1.40;;
13331;SDS011;6735;51.456;12.626;2024-03-29T03:19:22;2.30;;;1.70;;
13331;SDS011;6735;51.456;12.626;2024-03-29T03:21:48;1.37;;;1.27;;
13331;SDS011;6735;51.456;12.626;2024-03-29T03:24:15;2.53;;;1.30;;
13331;SDS011;6735;51.456;12.626;2024-03-29T03:26:41;1.37;;;1.10;;
13331;SDS011;6735;51.456;12.626;2024-03-29T03:29:06;2.87;;;1.33;;
13331;SDS011;6735;51.456;12.626;2024-03-29T03:31:34;1.00;;;1.00;;
13331;SDS011;6735;51.456;12.626;2024-03-29T03:33:59;3.80;;;1.33;;
13331;SDS011;6735;51.456;12.626;2024-03-29T03:36:25;1.30;;;1.20;;
13331;SDS011;6735;51.456;12.626;2024-03-29T03:38:50;1.43;;;1.20;;
13331;SDS011;6735;51.456;12.626;2024-03-29T03:41:16;1.40;;;1.30;;
13331;SDS011;6735;51.456;12.626;2024-03-29T03:43:41;1.97;;;1.70;;
13331;SDS011;6735;51.456;12.626;2024-03-29T03:46:07;1.40;;;1.30;;
13331;SDS011;6735;51.456;12.626;2024-03-29T03:48:32;2.63;;;1.40;;
13331;SDS011;6735;51.456;12.626;2024-03-29T03:50:57;2.53;;;1.47;;
13331;SDS011;6735;51.456;12.626;2024-03-29T03:53:23;2.50;;;1.17;;
13331;SDS011;6735;51.456;12.626;2024-03-29T03:55:48;4.00;;;1.43;;
13331;SDS011;6735;51.456;12.626;2024-03-29T03:58:14;2.17;;;1.27;;
13331;SDS011;6735;51.456;12.626;2024-03-29T04:00:40;3.37;;;1.47;;
13331;SDS011;6735;51.456;12.626;2024-03-29T04:03:05;2.37;;;1.30;;
13331;SDS011;6735;51.456;12.626;2024-03-29T04:05:31;2.10;;;1.23;;
13331;SDS011;6735;51.456;12.626;2024-03-29T04:07:57;4.50;;;1.30;;
13331;SDS011;6735;51.456;12.626;2024-03-29T04:10:23;2.13;;;1.20;;
13331;SDS011;6735;51.456;12.626;2024-03-29T04:12:52;2.77;;;1.47;;
13331;SDS011;6735;51.456;12.626;2024-03-29T04:15:17;1.60;;;1.30;;
13331;SDS011;6735;51.456;12.626;2024-03-29T04:17:43;1.37;;;1.27;;
13331;SDS011;6735;51.456;12.626;2024-03-29T04:20:08;3.30;;;1.33;;
13331;SDS011;6735;51.456;12.626;2024-03-29T04:22:34;1.63;;;1.33;;
13331;SDS011;6735;51.456;12.626;2024-03-29T04:25:00;4.27;;;1.83;;
13331;SDS011;6735;51.456;12.626;2024-03-29T04:27:26;1.90;;;1.47;;
13331;SDS011;6735;51.456;12.626;2024-03-29T04:29:52;2.00;;;1.20;;
13331;SDS011;6735;51.456;12.626;2024-03-29T04:32:20;1.60;;;1.30;;
13331;SDS011;6735;51.456;12.626;2024-03-29T04:34:47;1.20;;;1.10;;
13331;SDS011;6735;51.456;12.626;2024-03-29T04:37:13;1.43;;;1.20;;
13331;SDS011;6735;51.456;12.626;2024-03-29T04:39:39;2.97;;;1.33;;
13331;SDS011;6735;51.456;12.626;2024-03-29T04:42:04;4.90;;;1.83;;
13331;SDS011;6735;51.456;12.626;2024-03-29T04:44:30;1.57;;;1.23;;
13331;SDS011;6735;51.456;12.626;2024-03-29T04:46:55;1.50;;;1.20;;
13331;SDS011;6735;51.456;12.626;2024-03-29T04:49:23;2.40;;;1.50;;
13331;SDS011;6735;51.456;12.626;2024-03-29T04:51:59;1.47;;;1.17;;
13331;SDS011;6735;51.456;12.626;2024-03-29T04:54:26;1.10;;;1.00;;
13331;SDS011;6735;51.456;12.626;2024-03-29T04:56:52;1.20;;;1.10;;
13331;SDS011;6735;51.456;12.626;2024-03-29T04:59:18;2.83;;;1.43;;
13331;SDS011;6735;51.456;12.626;2024-03-29T05:01:45;1.83;;;1.13;;
13331;SDS011;6735;51.456;12.626;2024-03-29T05:04:19;1.70;;;1.03;;
13331;SDS011;6735;51.456;12.626;2024-03-29T05:06:50;2.20;;;1.23;;
13331;SDS011;6735;51.456;12.626;2024-03-29T05:09:17;3.20;;;1.30;;
13331;SDS011;6735;51.456;12.626;2024-03-29T05:11:42;3.40;;;1.27;;
13331;SDS011;6735;51.456;12.626;2024-03-29T05:14:08;1.77;;;1.10;;
13331;SDS011;6735;51.456;12.626;2024-03-29T05:16:35;2.40;;;1.60;;
13331;SDS011;6735;51.456;12.626;2024-03-29T05:19:00;1.53;;;0.90;;
13331;SDS011;6735;51.456;12.626;2024-03-29T05:21:26;1.40;;;1.00;;
13331;SDS011;6735;51.456;12.626;2024-03-29T05:23:51;1.03;;;1.03;;
13331;SDS011;6735;51.456;12.626;2024-03-29T05:26:17;3.50;;;1.10;;
13331;SDS011;6735;51.456;12.626;2024-03-29T05:28:43;2.10;;;1.17;;
13331;SDS011;6735;51.456;12.626;2024-03-29T05:31:11;3.40;;;1.70;;
13331;SDS011;6735;51.456;12.626;2024-03-29T05:33:39;1.63;;;1.33;;
13331;SDS011;6735;51.456;12.626;2024-03-29T05:36:06;2.00;;;1.40;;
13331;SDS011;6735;51.456;12.626;2024-03-29T05:38:33;1.00;;;1.00;;
13331;SDS011;6735;51.456;12.626;2024-03-29T05:40:59;2.27;;;1.20;;
13331;SDS011;6735;51.456;12.626;2024-03-29T05:43:24;2.67;;;1.37;;
13331;SDS011;6735;51.456;12.626;2024-03-29T05:45:52;2.20;;;1.30;;
13331;SDS011;6735;51.456;12.626;2024-03-29T05:48:17;1.60;;;1.50;;
13331;SDS011;6735;51.456;12.626;2024-03-29T05:50:44;2.07;;;1.00;;
13331;SDS011;6735;51.456;12.626;2024-03-29T05:53:10;1.77;;;1.10;;
13331;SDS011;6735;51.456;12.626;2024-03-29T05:55:35;1.03;;;1.03;;
13331;SDS011;6735;51.456;12.626;2024-03-29T05:58:01;1.30;;;1.20;;
13331;SDS011;6735;51.456;12.626;2024-03-29T06:00:27;2.23;;;1.30;;
13331;SDS011;6735;51.456;12.626;2024-03-29T06:02:53;0.93;;;0.93;;
13331;SDS011;6735;51.456;12.626;2024-03-29T06:05:19;1.27;;;1.10;;
13331;SDS011;6735;51.456;12.626;2024-03-29T06:07:45;1.13;;;1.10;;
13331;SDS011;6735;51.456;12.626;2024-03-29T06:10:10;1.10;;;1.00;;
13331;SDS011;6735;51.456;12.626;2024-03-29T06:12:36;1.70;;;1.57;;
13331;SDS011;6735;51.456;12.626;2024-03-29T06:15:03;2.37;;;1.23;;
13331;SDS011;6735;51.456;12.626;2024-03-29T06:17:49;1.93;;;1.27;;
13331;SDS011;6735;51.456;12.626;2024-03-29T06:20:14;1.60;;;1.10;;
13331;SDS011;6735;51.456;12.626;2024-03-29T06:22:40;2.37;;;1.20;;
13331;SDS011;6735;51.456;12.626;2024-03-29T06:25:05;1.70;;;1.50;;
13331;SDS011;6735;51.456;12.626;2024-03-29T06:27:31;1.47;;;1.37;;
13331;SDS011;6735;51.456;12.626;2024-03-29T06:29:57;1.63;;;1.30;;
13331;SDS011;6735;51.456;12.626;2024-03-29T06:32:23;1.17;;;1.13;;
13331;SDS011;6735;51.456;12.626;2024-03-29T06:34:48;1.67;;;1.20;;
13331;SDS011;6735;51.456;12.626;2024-03-29T06:37:14;2.47;;;1.30;;
13331;SDS011;6735;51.456;12.626;2024-03-29T06:39:40;1.70;;;1.10;;
13331;SDS011;6735;51.456;12.626;2024-03-29T06:42:07;1.77;;;1.20;;
13331;SDS011;6735;51.456;12.626;2024-03-29T06:44:32;3.00;;;1.20;;
13331;SDS011;6735;51.456;12.626;2024-03-29T06:46:58;1.30;;;1.20;;
13331;SDS011;6735;51.456;12.626;2024-03-29T06:49:24;1.87;;;1.30;;
13331;SDS011;6735;51.456;12.626;2024-03-29T06:51:49;1.93;;;1.30;;
13331;SDS011;6735;51.456;12.626;2024-03-29T06:54:15;1.37;;;1.10;;
13331;SDS011;6735;51.456;12.626;2024-03-29T06:56:41;3.67;;;1.10;;
13331;SDS011;6735;51.456;12.626;2024-03-29T06:59:06;1.73;;;1.40;;
13331;SDS011;6735;51.456;12.626;2024-03-29T07:01:33;1.63;;;1.23;;
13331;SDS011;6735;51.456;12.626;2024-03-29T07:03:58;1.20;;;1.10;;
13331;SDS011;6735;51.456;12.626;2024-03-29T07:06:24;1.17;;;0.90;;
13331;SDS011;6735;51.456;12.626;2024-03-29T07:08:49;1.97;;;0.90;;
13331;SDS011;6735;51.456;12.626;2024-03-29T07:11:15;1.20;;;1.10;;
13331;SDS011;6735;51.456;12.626;2024-03-29T07:13:40;2.17;;;1.47;;
13331;SDS011;6735;51.456;12.626;2024-03-29T07:16:06;1.70;;;1.10;;
13331;SDS011;6735;51.456;12.626;2024-03-29T07:18:32;2.23;;;1.10;;
13331;SDS011;6735;51.456;12.626;2024-03-29T07:20:57;1.43;;;1.20;;
13331;SDS011;6735;51.456;12.626;2024-03-29T07:23:23;3.27;;;1.33;;
13331;SDS011;6735;51.456;12.626;2024-03-29T07:28:43;1.27;;;1.07;;
13331;SDS011;6735;51.456;12.626;2024-03-29T07:31:08;1.47;;;1.37;;
13331;SDS011;6735;51.456;12.626;2024-03-29T07:33:34;3.30;;;1.20;;
13331;SDS011;6735;51.456;12.626;2024-03-29T07:36:01;1.57;;;1.20;;
13331;SDS011;6735;51.456;12.626;2024-03-29T07:38:27;1.57;;;1.20;;
13331;SDS011;6735;51.456;12.626;2024-03-29T07:40:54;2.23;;;1.10;;
13331;SDS011;6735;51.456;12.626;2024-03-29T07:43:20;1.43;;;1.33;;
13331;SDS011;6735;51.456;12.626;2024-03-29T07:45:49;1.77;;;1.50;;
13331;SDS011;6735;51.456;12.626;2024-03-29T07:48:16;2.93;;;1.30;;
13331;SDS011;6735;51.456;12.626;2024-03-29T07:50:42;2.23;;;1.40;;
13331;SDS011;6735;51.456;12.626;2024-03-29T07:53:09;2.13;;;1.93;;
13331;SDS011;6735;51.456;12.626;2024-03-29T07:55:35;1.37;;;1.27;;
13331;SDS011;6735;51.456;12.626;2024-03-29T07:58:02;1.63;;;1.07;;
13331;SDS011;6735;51.456;12.626;2024-03-29T08:00:30;1.70;;;1.33;;
13331;SDS011;6735;51.456;12.626;2024-03-29T08:02:56;2.30;;;1.30;;
13331;SDS011;6735;51.456;12.626;2024-03-29T08:05:22;1.77;;;1.40;;
13331;SDS011;6735;51.456;12.626;2024-03-29T08:07:47;2.50;;;1.13;;
13331;SDS011;6735;51.456;12.626;2024-03-29T08:10:13;1.60;;;1.37;;
13331;SDS011;6735;51.456;12.626;2024-03-29T08:12:38;1.97;;;1.30;;
13331;SDS011;6735;51.456;12.626;2024-03-29T08:15:04;2.00;;;1.00;;
13331;SDS011;6735;51.456;12.626;2024-03-29T08:17:30;1.20;;;1.07;;
13331;SDS011;6735;51.456;12.626;2024-03-29T08:19:55;1.00;;;1.00;;
13331;SDS011;6735;51.456;12.626;2024-03-29T08:22:21;1.00;;;1.00;;
13331;SDS011;6735;51.456;12.626;2024-03-29T08:24:46;1.93;;;1.20;;
13331;SDS011;6735;51.456;12.626;2024-03-29T08:27:12;1.90;;;1.27;;
13331;SDS011;6735;51.456;12.626;2024-03-29T08:29:37;1.70;;;1.13;;
13331;SDS011;6735;51.456;12.626;2024-03-29T08:32:03;1.20;;;1.10;;
13331;SDS011;6735;51.456;12.626;2024-03-29T08:34:29;1.40;;;1.03;;
13331;SDS011;6735;51.456;12.626;2024-03-29T08:36:59;1.33;;;1.33;;
13331;SDS011;6735;51.456;12.626;2024-03-29T08:39:28;1.10;;;1.00;;
13331;SDS011;6735;51.456;12.626;2024-03-29T08:41:55;3.60;;;1.53;;
13331;SDS011;6735;51.456;12.626;2024-03-29T08:44:20;2.07;;;1.47;;
13331;SDS011;6735;51.456;12.626;2024-03-29T08:46:46;2.53;;;1.10;;
13331;SDS011;6735;51.456;12.626;2024-03-29T08:49:11;1.20;;;1.10;;
13331;SDS011;6735;51.456;12.626;2024-03-29T08:51:37;1.47;;;1.33;;
13331;SDS011;6735;51.456;12.626;2024-03-29T08:54:02;2.10;;;1.80;;
13331;SDS011;6735;51.456;12.626;2024-03-29T08:56:30;2.27;;;1.80;;
13331;SDS011;6735;51.456;12.626;2024-03-29T08:58:56;1.30;;;1.20;;
13331;SDS011;6735;51.456;12.626;2024-03-29T09:01:24;2.93;;;1.30;;
13331;SDS011;6735;51.456;12.626;2024-03-29T09:03:49;1.53;;;1.43;;
13331;SDS011;6735;51.456;12.626;2024-03-29T09:06:15;1.43;;;1.30;;
13331;SDS011;6735;51.456;12.626;2024-03-29T09:08:40;2.67;;;1.30;;
13331;SDS011;6735;51.456;12.626;2024-03-29T09:11:06;1.43;;;1.33;;
13331;SDS011;6735;51.456;12.626;2024-03-29T09:13:32;1.30;;;1.23;;
13331;SDS011;6735;51.456;12.626;2024-03-29T09:15:57;1.53;;;1.43;;
13331;SDS011;6735;51.456;12.626;2024-03-29T09:18:23;1.30;;;1.20;;
13331;SDS011;6735;51.456;12.626;2024-03-29T09:21:00;2.53;;;1.40;;
13331;SDS011;6735;51.456;12.626;2024-03-29T09:23:26;2.27;;;1.23;;
13331;SDS011;6735;51.456;12.626;2024-03-29T09:25:56;4.03;;;1.40;;
13331;SDS011;6735;51.456;12.626;2024-03-29T09:28:22;1.27;;;1.17;;
13331;SDS011;6735;51.456;12.626;2024-03-29T09:30:48;1.90;;;1.53;;
13331;SDS011;6735;51.456;12.626;2024-03-29T09:33:14;1.60;;;1.00;;
13331;SDS011;6735;51.456;12.626;2024-03-29T09:35:39;1.50;;;1.40;;
13331;SDS011;6735;51.456;12.626;2024-03-29T09:38:05;2.23;;;1.40;;
13331;SDS011;6735;51.456;12.626;2024-03-29T09:40:31;2.33;;;1.47;;
13331;SDS011;6735;51.456;12.626;2024-03-29T09:42:59;1.83;;;1.73;;
13331;SDS011;6735;51.456;12.626;2024-03-29T09:45:28;1.70;;;1.60;;
13331;SDS011;6735;51.456;12.626;2024-03-29T09:48:02;2.37;;;1.50;;
13331;SDS011;6735;51.456;12.626;2024-03-29T09:50:28;3.87;;;1.50;;
13331;SDS011;6735;51.456;12.626;2024-03-29T09:52:55;2.00;;;1.60;;
13331;SDS011;6735;51.456;12.626;2024-03-29T09:55:21;2.10;;;1.80;;
13331;SDS011;6735;51.456;12.626;2024-03-29T09:57:47;1.57;;;1.47;;
13331;SDS011;6735;51.456;12.626;2024-03-29T10:00:13;1.73;;;1.57;;
13331;SDS011;6735;51.456;12.626;2024-03-29T10:02:39;1.93;;;1.50;;
13331;SDS011;6735;51.456;12.626;2024-03-29T10:05:06;1.17;;;1.17;;
13331;SDS011;6735;51.456;12.626;2024-03-29T10:07:33;1.97;;;1.30;;
13331;SDS011;6735;51.456;12.626;2024-03-29T10:10:01;1.87;;;1.30;;
13331;SDS011;6735;51.456;12.626;2024-03-29T10:12:27;2.43;;;1.60;;
13331;SDS011;6735;51.456;12.626;2024-03-29T10:14:53;1.80;;;1.70;;
13331;SDS011;6735;51.456;12.626;2024-03-29T10:17:28;3.10;;;1.60;;
13331;SDS011;6735;51.456;12.626;2024-03-29T10:19:53;1.90;;;1.70;;
13331;SDS011;6735;51.456;12.626;2024-03-29T10:22:19;2.93;;;1.57;;
13331;SDS011;6735;51.456;12.626;2024-03-29T10:24:44;1.97;;;1.67;;
13331;SDS011;6735;51.456;12.626;2024-03-29T10:27:10;2.13;;;1.60;;
13331;SDS011;6735;51.456;12.626;2024-03-29T10:29:35;2.43;;;2.10;;
13331;SDS011;6735;51.456;12.626;2024-03-29T10:32:01;2.60;;;1.80;;
13331;SDS011;6735;51.456;12.626;2024-03-29T10:34:27;1.70;;;1.53;;
13331;SDS011;6735;51.456;12.626;2024-03-29T10:36:59;3.80;;;1.63;;
13331;SDS011;6735;51.456;12.626;2024-03-29T10:39:25;3.53;;;2.40;;
13331;SDS011;6735;51.456;12.626;2024-03-29T10:41:51;1.90;;;1.70;;
13331;SDS011;6735;51.456;12.626;2024-03-29T10:44:17;2.03;;;1.67;;
13331;SDS011;6735;51.456;12.626;2024-03-29T10:46:45;1.97;;;1.77;;
13331;SDS011;6735;51.456;12.626;2024-03-29T10:49:13;1.87;;;1.67;;
13331;SDS011;6735;51.456;12.626;2024-03-29T10:51:41;2.20;;;1.63;;
13331;SDS011;6735;51.456;12.626;2024-03-29T10:54:10;2.03;;;1.40;;
13331;SDS011;6735;51.456;12.626;2024-03-29T10:56:37;1.23;;;1.10;;
13331;SDS011;6735;51.456;12.626;2024-03-29T10:59:18;1.77;;;1.60;;
13331;SDS011;6735;51.456;12.626;2024-03-29T11:01:49;1.93;;;1.57;;
13331;SDS011;6735;51.456;12.626;2024-03-29T11:04:22;2.90;;;1.30;;
13331;SDS011;6735;51.456;12.626;2024-03-29T11:06:51;1.80;;;1.60;;
13331;SDS011;6735;51.456;12.626;2024-03-29T11:09:22;1.30;;;1.20;;
13331;SDS011;6735;51.456;12.626;2024-03-29T11:11:54;2.47;;;1.37;;
13331;SDS011;6735;51.456;12.626;2024-03-29T11:14:24;1.83;;;1.43;;
13331;SDS011;6735;51.456;12.626;2024-03-29T11:17:01;2.77;;;1.47;;
13331;SDS011;6735;51.456;12.626;2024-03-29T11:19:28;1.83;;;1.57;;
13331;SDS011;6735;51.456;12.626;2024-03-29T11:21:54;1.90;;;1.40;;
13331;SDS011;6735;51.456;12.626;2024-03-29T11:24:22;1.87;;;1.40;;
13331;SDS011;6735;51.456;12.626;2024-03-29T11:26:47;1.73;;;1.30;;
13331;SDS011;6735;51.456;12.626;2024-03-29T11:29:19;2.60;;;1.57;;
13331;SDS011;6735;51.456;12.626;2024-03-29T11:31:46;2.10;;;1.47;;
13331;SDS011;6735;51.456;12.626;2024-03-29T11:34:14;2.77;;;1.20;;
13331;SDS011;6735;51.456;12.626;2024-03-29T11:36:43;4.23;;;1.37;;
13331;SDS011;6735;51.456;12.626;2024-03-29T11:39:19;1.90;;;1.33;;
13331;SDS011;6735;51.456;12.626;2024-03-29T11:41:48;2.87;;;1.57;;
13331;SDS011;6735;51.456;12.626;2024-03-29T11:44:14;1.77;;;1.10;;
13331;SDS011;6735;51.456;12.626;2024-03-29T11:46:40;1.50;;;1.40;;
13331;SDS011;6735;51.456;12.626;2024-03-29T11:49:07;1.50;;;1.40;;
13331;SDS011;6735;51.456;12.626;2024-03-29T11:51:32;1.30;;;1.20;;
13331;SDS011;6735;51.456;12.626;2024-03-29T11:53:59;1.40;;;1.10;;
13331;SDS011;6735;51.456;12.626;2024-03-29T11:56:25;2.23;;;1.50;;
13331;SDS011;6735;51.456;12.626;2024-03-29T11:58:50;1.83;;;1.47;;
13331;SDS011;6735;51.456;12.626;2024-03-29T12:01:16;2.00;;;1.20;;
13331;SDS011;6735;51.456;12.626;2024-03-29T12:03:42;1.43;;;1.30;;
13331;SDS011;6735;51.456;12.626;2024-03-29T12:06:09;1.83;;;1.73;;
13331;SDS011;6735;51.456;12.626;2024-03-29T12:08:38;1.67;;;1.50;;
13331;SDS011;6735;51.456;12.626;2024-03-29T12:11:05;1.83;;;1.20;;
13331;SDS011;6735;51.456;12.626;2024-03-29T12:13:31;2.23;;;1.50;;
13331;SDS011;6735;51.456;12.626;2024-03-29T12:15:57;1.47;;;1.20;;
13331;SDS011;6735;51.456;12.626;2024-03-29T12:18:24;1.40;;;1.30;;
13331;SDS011;6735;51.456;12.626;2024-03-29T12:20:50;1.07;;;1.00;;
13331;SDS011;6735;51.456;12.626;2024-03-29T12:23:17;1.40;;;1.30;;
13331;SDS011;6735;51.456;12.626;2024-03-29T12:25:44;1.70;;;0.97;;
13331;SDS011;6735;51.456;12.626;2024-03-29T12:28:10;1.33;;;1.20;;
13331;SDS011;6735;51.456;12.626;2024-03-29T12:30:37;0.80;;;0.80;;
13331;SDS011;6735;51.456;12.626;2024-03-29T12:33:07;1.13;;;1.03;;
13331;SDS011;6735;51.456;12.626;2024-03-29T12:35:34;1.07;;;0.97;;
13331;SDS011;6735;51.456;12.626;2024-03-29T12:38:01;0.80;;;0.73;;
13331;SDS011;6735;51.456;12.626;2024-03-29T12:40:33;0.80;;;0.80;;
13331;SDS011;6735;51.456;12.626;2024-03-29T12:43:06;1.00;;;1.00;;
13331;SDS011;6735;51.456;12.626;2024-03-29T12:45:33;1.77;;;0.80;;
13331;SDS011;6735;51.456;12.626;2024-03-29T12:48:08;0.73;;;0.73;;
13331;SDS011;6735;51.456;12.626;2024-03-29T12:50:36;2.20;;;1.03;;
13331;SDS011;6735;51.456;12.626;2024-03-29T12:53:02;1.23;;;0.90;;
13331;SDS011;6735;51.456;12.626;2024-03-29T12:55:31;0.70;;;0.70;;
13331;SDS011;6735;51.456;12.626;2024-03-29T12:58:00;1.30;;;0.90;;
13331;SDS011;6735;51.456;12.626;2024-03-29T13:00:29;1.13;;;1.00;;
13331;SDS011;6735;51.456;12.626;2024-03-29T13:02:55;0.80;;;0.80;;
13331;SDS011;6735;51.456;12.626;2024-03-29T13:05:20;2.20;;;1.00;;
13331;SDS011;6735;51.456;12.626;2024-03-29T13:07:46;0.70;;;0.70;;
13331;SDS011;6735;51.456;12.626;2024-03-29T13:10:11;0.93;;;0.80;;
13331;SDS011;6735;51.456;12.626;2024-03-29T13:12:44;0.70;;;0.70;;
13331;SDS011;6735;51.456;12.626;2024-03-29T13:15:19;0.70;;;0.70;;
13331;SDS011;6735;51.456;12.626;2024-03-29T13:17:46;0.90;;;0.80;;
13331;SDS011;6735;51.456;12.626;2024-03-29T13:20:13;1.53;;;0.70;;
13331;SDS011;6735;51.456;12.626;2024-03-29T13:22:40;1.57;;;0.60;;
13331;SDS011;6735;51.456;12.626;2024-03-29T13:25:11;2.00;;;0.90;;
13331;SDS011;6735;51.456;12.626;2024-03-29T13:27:41;1.23;;;0.80;;
13331;SDS011;6735;51.456;12.626;2024-03-29T13:30:07;0.70;;;0.70;;
13331;SDS011;6735;51.456;12.626;2024-03-29T13:32:35;1.40;;;1.00;;
13331;SDS011;6735;51.456;12.626;2024-03-29T13:35:02;0.93;;;0.83;;
13331;SDS011;6735;51.456;12.626;2024-03-29T13:37:31;1.67;;;0.67;;
13331;SDS011;6735;51.456;12.626;2024-03-29T13:39:57;0.73;;;0.70;;
13331;SDS011;6735;51.456;12.626;2024-03-29T13:42:22;0.80;;;0.80;;
13331;SDS011;6735;51.456;12.626;2024-03-29T13:44:51;0.93;;;0.87;;
13331;SDS011;6735;51.456;12.626;2024-03-29T13:47:18;0.80;;;0.73;;
13331;SDS011;6735;51.456;12.626;2024-03-29T13:49:43;0.93;;;0.60;;
13331;SDS011;6735;51.456;12.626;2024-03-29T13:52:10;1.33;;;0.90;;
13331;SDS011;6735;51.456;12.626;2024-03-29T13:54:37;0.70;;;0.70;;
13331;SDS011;6735;51.456;12.626;2024-03-29T13:57:02;0.57;;;0.57;;
13331;SDS011;6735;51.456;12.626;2024-03-29T13:59:31;0.70;;;0.60;;
13331;SDS011;6735;51.456;12.626;2024-03-29T14:01:58;0.80;;;0.80;;
13331;SDS011;6735;51.456;12.626;2024-03-29T14:04:23;0.70;;;0.70;;
13331;SDS011;6735;51.456;12.626;2024-03-29T14:06:49;0.90;;;0.80;;
13331;SDS011;6735;51.456;12.626;2024-03-29T14:09:15;1.33;;;0.90;;
13331;SDS011;6735;51.456;12.626;2024-03-29T14:11:41;1.23;;;1.03;;
13331;SDS011;6735;51.456;12.626;2024-03-29T14:14:08;1.00;;;0.77;;
13331;SDS011;6735;51.456;12.626;2024-03-29T14:16:35;1.43;;;0.80;;
13331;SDS011;6735;51.456;12.626;2024-03-29T14:19:02;1.10;;;0.90;;
13331;SDS011;6735;51.456;12.626;2024-03-29T14:21:27;1.57;;;1.47;;
13331;SDS011;6735;51.456;12.626;2024-03-29T14:23:53;2.73;;;1.00;;
13331;SDS011;6735;51.456;12.626;2024-03-29T14:26:19;0.90;;;0.90;;
13331;SDS011;6735;51.456;12.626;2024-03-29T14:28:45;0.67;;;0.60;;
13331;SDS011;6735;51.456;12.626;2024-03-29T14:31:10;0.80;;;0.80;;
13331;SDS011;6735;51.456;12.626;2024-03-29T14:33:36;0.83;;;0.83;;
13331;SDS011;6735;51.456;12.626;2024-03-29T14:36:02;0.83;;;0.80;;
13331;SDS011;6735;51.456;12.626;2024-03-29T14:38:28;0.93;;;0.93;;
13331;SDS011;6735;51.456;12.626;2024-03-29T14:40:54;0.93;;;0.93;;
13331;SDS011;6735;51.456;12.626;2024-03-29T14:43:20;1.90;;;0.90;;
13331;SDS011;6735;51.456;12.626;2024-03-29T14:45:46;1.03;;;0.83;;
13331;SDS011;6735;51.456;12.626;2024-03-29T14:48:14;2.37;;;0.70;;